sensor_id;sensor_type;location;lat;lon;timestamp;pressure;altitude;pressure_sealevel;temperature;humidity
72959;BME280;60008;50.826;6.896;2023-05-02T00:00:31;101302.81;;;11.53;100.00
72959;BME280;60008;50.826;6.896;2023-05-02T00:03:16;101304.56;;;11.45;100.00
72959;BME280;60008;50.826;6.896;2023-05-02T00:06:01;101301.59;;;11.48;100.00
72959;BME280;60008;50.826;6.896;2023-05-02T00:08:50;101306.91;;;11.48;100.00
72959;BME280;60008;50.826;6.896;2023-05-02T00:11:35;101303.41;;;11.47;100.00
72959;BME280;60008;50.826;6.896;2023-05-02T00:14:20;101302.66;;;11.37;100.00
72959;BME280;60008;50.826;6.896;2023-05-02T00:17:05;101298.44;;;11.26;100.00
72959;BME280;60008;50.826;6.896;2023-05-02T00:19:50;101308.59;;;11.13;100.00
72959;BME280;60008;50.826;6.896;2023-05-02T00:22:35;101317.50;;;11.12;100.00
72959;BME280;60008;50.826;6.896;2023-05-02T00:25:20;101311.53;;;11.10;100.00
72959;BME280;60008;50.826;6.896;2023-05-02T00:28:05;101313.50;;;11.08;100.00
72959;BME280;60008;50.826;6.896;2023-05-02T00:30:50;101314.22;;;11.01;100.00
72959;BME280;60008;50.826;6.896;2023-05-02T00:33:35;101320.53;;;11.00;100.00
72959;BME280;60008;50.826;6.896;2023-05-02T00:36:20;101322.19;;;11.01;100.00
72959;BME280;60008;50.826;6.896;2023-05-02T00:39:04;101328.78;;;10.97;100.00
72959;BME280;60008;50.826;6.896;2023-05-02T00:41:59;101326.91;;;11.07;100.00
72959;BME280;60008;50.826;6.896;2023-05-02T00:44:45;101335.06;;;10.96;100.00
72959;BME280;60008;50.826;6.896;2023-05-02T00:47:30;101331.56;;;10.95;100.00
72959;BME280;60008;50.826;6.896;2023-05-02T00:50:16;101328.25;;;10.93;100.00
72959;BME280;60008;50.826;6.896;2023-05-02T00:53:02;101338.34;;;10.90;100.00
72959;BME280;60008;50.826;6.896;2023-05-02T00:55:48;101339.75;;;10.84;100.00
72959;BME280;60008;50.826;6.896;2023-05-02T00:58:33;101342.81;;;10.80;100.00
72959;BME280;60008;50.826;6.896;2023-05-02T01:01:40;101340.75;;;10.73;100.00
72959;BME280;60008;50.826;6.896;2023-05-02T01:07:46;101351.16;;;10.85;100.00
72959;BME280;60008;50.826;6.896;2023-05-02T01:10:45;101351.88;;;10.87;100.00
72959;BME280;60008;50.826;6.896;2023-05-02T01:13:33;101355.66;;;10.84;100.00
72959;BME280;60008;50.826;6.896;2023-05-02T01:16:19;101359.97;;;10.85;100.00
72959;BME280;60008;50.826;6.896;2023-05-02T01:19:14;101363.47;;;10.86;100.00
72959;BME280;60008;50.826;6.896;2023-05-02T01:22:05;101368.31;;;10.90;100.00
72959;BME280;60008;50.826;6.896;2023-05-02T01:28:03;101376.72;;;10.86;100.00
72959;BME280;60008;50.826;6.896;2023-05-02T01:30:50;101373.22;;;10.85;100.00
72959;BME280;60008;50.826;6.896;2023-05-02T01:33:37;101373.09;;;10.87;100.00
72959;BME280;60008;50.826;6.896;2023-05-02T01:36:25;101384.56;;;10.77;100.00
72959;BME280;60008;50.826;6.896;2023-05-02T01:39:14;101398.97;;;10.75;100.00
72959;BME280;60008;50.826;6.896;2023-05-02T01:42:03;101398.00;;;10.76;100.00
72959;BME280;60008;50.826;6.896;2023-05-02T01:44:50;101398.28;;;10.73;100.00
72959;BME280;60008;50.826;6.896;2023-05-02T01:47:39;101403.88;;;10.70;100.00
72959;BME280;60008;50.826;6.896;2023-05-02T01:50:25;101410.53;;;10.74;100.00
72959;BME280;60008;50.826;6.896;2023-05-02T01:53:11;101409.69;;;10.73;100.00
72959;BME280;60008;50.826;6.896;2023-05-02T01:55:58;101411.53;;;10.73;100.00
72959;BME280;60008;50.826;6.896;2023-05-02T01:58:46;101410.41;;;10.75;100.00
72959;BME280;60008;50.826;6.896;2023-05-02T02:01:32;101407.13;;;10.54;100.00
72959;BME280;60008;50.826;6.896;2023-05-02T02:04:19;101404.03;;;10.59;100.00
72959;BME280;60008;50.826;6.896;2023-05-02T02:07:07;101417.31;;;10.49;100.00
72959;BME280;60008;50.826;6.896;2023-05-02T02:09:53;101429.44;;;10.52;100.00
72959;BME280;60008;50.826;6.896;2023-05-02T02:12:42;101432.78;;;10.44;100.00
72959;BME280;60008;50.826;6.896;2023-05-02T02:15:33;101427.66;;;10.43;100.00
72959;BME280;60008;50.826;6.896;2023-05-02T02:18:20;101439.38;;;10.31;100.00
72959;BME280;60008;50.826;6.896;2023-05-02T02:21:10;101445.25;;;10.34;100.00
72959;BME280;60008;50.826;6.896;2023-05-02T02:23:56;101449.13;;;10.40;100.00
72959;BME280;60008;50.826;6.896;2023-05-02T02:26:44;101445.22;;;10.44;100.00
72959;BME280;60008;50.826;6.896;2023-05-02T02:29:30;101451.34;;;10.44;100.00
72959;BME280;60008;50.826;6.896;2023-05-02T02:32:15;101457.38;;;10.27;100.00
72959;BME280;60008;50.826;6.896;2023-05-02T02:35:01;101454.03;;;10.35;100.00
72959;BME280;60008;50.826;6.896;2023-05-02T02:41:27;101460.13;;;10.45;100.00
72959;BME280;60008;50.826;6.896;2023-05-02T02:44:27;101467.16;;;10.27;100.00
72959;BME280;60008;50.826;6.896;2023-05-02T02:47:28;101470.19;;;10.41;100.00
72959;BME280;60008;50.826;6.896;2023-05-02T02:50:30;101474.09;;;10.37;100.00
72959;BME280;60008;50.826;6.896;2023-05-02T02:53:18;101485.13;;;10.23;100.00
72959;BME280;60008;50.826;6.896;2023-05-02T02:56:05;101483.31;;;10.24;100.00
72959;BME280;60008;50.826;6.896;2023-05-02T02:59:04;101495.72;;;10.23;100.00
72959;BME280;60008;50.826;6.896;2023-05-02T03:01:59;101485.28;;;10.22;100.00
72959;BME280;60008;50.826;6.896;2023-05-02T03:04:47;101493.06;;;10.23;100.00
72959;BME280;60008;50.826;6.896;2023-05-02T03:07:33;101500.19;;;10.32;100.00
72959;BME280;60008;50.826;6.896;2023-05-02T03:10:18;101492.25;;;10.32;100.00
72959;BME280;60008;50.826;6.896;2023-05-02T03:13:03;101490.84;;;10.38;100.00
72959;BME280;60008;50.826;6.896;2023-05-02T03:18:37;101488.88;;;10.30;100.00
72959;BME280;60008;50.826;6.896;2023-05-02T03:21:22;101490.97;;;10.46;100.00
72959;BME280;60008;50.826;6.896;2023-05-02T03:24:07;101493.50;;;10.38;100.00
72959;BME280;60008;50.826;6.896;2023-05-02T03:26:56;101486.94;;;10.32;100.00
72959;BME280;60008;50.826;6.896;2023-05-02T03:29:42;101490.13;;;10.36;100.00
72959;BME280;60008;50.826;6.896;2023-05-02T03:32:28;101486.22;;;10.30;100.00
72959;BME280;60008;50.826;6.896;2023-05-02T03:35:13;101491.00;;;10.27;100.00
72959;BME280;60008;50.826;6.896;2023-05-02T03:37:57;101494.59;;;10.26;100.00
72959;BME280;60008;50.826;6.896;2023-05-02T03:40:43;101499.47;;;10.30;100.00
72959;BME280;60008;50.826;6.896;2023-05-02T03:43:28;101497.53;;;10.32;100.00
72959;BME280;60008;50.826;6.896;2023-05-02T03:46:13;101499.75;;;10.37;100.00
72959;BME280;60008;50.826;6.896;2023-05-02T03:48:58;101495.88;;;10.41;100.00
72959;BME280;60008;50.826;6.896;2023-05-02T03:51:43;101494.72;;;10.53;100.00
72959;BME280;60008;50.826;6.896;2023-05-02T03:54:31;101500.28;;;10.50;100.00
72959;BME280;60008;50.826;6.896;2023-05-02T03:57:16;101497.38;;;10.53;100.00
72959;BME280;60008;50.826;6.896;2023-05-02T04:00:01;101492.34;;;10.59;100.00
72959;BME280;60008;50.826;6.896;2023-05-02T04:02:46;101501.56;;;10.46;100.00
72959;BME280;60008;50.826;6.896;2023-05-02T04:05:32;101506.59;;;10.49;100.00
72959;BME280;60008;50.826;6.896;2023-05-02T04:08:17;101495.56;;;10.53;100.00
72959;BME280;60008;50.826;6.896;2023-05-02T04:11:02;101501.28;;;10.49;100.00
72959;BME280;60008;50.826;6.896;2023-05-02T04:13:47;101507.69;;;10.56;100.00
72959;BME280;60008;50.826;6.896;2023-05-02T04:16:33;101501.81;;;10.52;100.00
72959;BME280;60008;50.826;6.896;2023-05-02T04:19:19;101513.44;;;10.51;100.00
72959;BME280;60008;50.826;6.896;2023-05-02T04:22:04;101515.09;;;10.52;100.00
72959;BME280;60008;50.826;6.896;2023-05-02T04:24:50;101523.06;;;10.43;100.00
72959;BME280;60008;50.826;6.896;2023-05-02T04:27:35;101529.75;;;10.37;100.00
72959;BME280;60008;50.826;6.896;2023-05-02T04:30:20;101541.88;;;10.40;100.00
72959;BME280;60008;50.826;6.896;2023-05-02T04:33:05;101547.31;;;10.38;100.00
72959;BME280;60008;50.826;6.896;2023-05-02T04:35:50;101552.31;;;10.41;100.00
72959;BME280;60008;50.826;6.896;2023-05-02T04:38:36;101546.88;;;10.33;100.00
72959;BME280;60008;50.826;6.896;2023-05-02T04:41:21;101550.66;;;10.50;100.00
72959;BME280;60008;50.826;6.896;2023-05-02T04:44:06;101556.50;;;10.44;100.00
72959;BME280;60008;50.826;6.896;2023-05-02T04:46:51;101567.09;;;10.44;100.00
72959;BME280;60008;50.826;6.896;2023-05-02T04:49:36;101576.91;;;10.43;100.00
72959;BME280;60008;50.826;6.896;2023-05-02T04:52:21;101568.63;;;10.46;100.00
72959;BME280;60008;50.826;6.896;2023-05-02T04:55:06;101579.69;;;10.51;100.00
72959;BME280;60008;50.826;6.896;2023-05-02T04:57:51;101579.53;;;10.43;100.00
72959;BME280;60008;50.826;6.896;2023-05-02T05:00:36;101586.25;;;10.38;100.00
72959;BME280;60008;50.826;6.896;2023-05-02T05:03:22;101593.34;;;10.37;100.00
72959;BME280;60008;50.826;6.896;2023-05-02T05:06:07;101593.91;;;10.41;100.00
72959;BME280;60008;50.826;6.896;2023-05-02T05:08:52;101604.38;;;10.42;100.00
72959;BME280;60008;50.826;6.896;2023-05-02T05:11:37;101602.53;;;10.24;100.00
72959;BME280;60008;50.826;6.896;2023-05-02T05:14:23;101603.38;;;10.24;100.00
72959;BME280;60008;50.826;6.896;2023-05-02T05:17:08;101612.31;;;10.33;100.00
72959;BME280;60008;50.826;6.896;2023-05-02T05:19:53;101613.41;;;10.49;100.00
72959;BME280;60008;50.826;6.896;2023-05-02T05:22:38;101626.00;;;10.66;100.00
72959;BME280;60008;50.826;6.896;2023-05-02T05:25:25;101624.31;;;10.65;100.00
72959;BME280;60008;50.826;6.896;2023-05-02T05:28:11;101623.34;;;10.57;100.00
72959;BME280;60008;50.826;6.896;2023-05-02T05:30:56;101614.84;;;10.53;100.00
72959;BME280;60008;50.826;6.896;2023-05-02T05:33:41;101615.53;;;10.55;100.00
72959;BME280;60008;50.826;6.896;2023-05-02T05:36:27;101614.41;;;10.58;100.00
72959;BME280;60008;50.826;6.896;2023-05-02T05:39:12;101621.66;;;10.65;100.00
72959;BME280;60008;50.826;6.896;2023-05-02T05:41:57;101617.06;;;10.67;100.00
72959;BME280;60008;50.826;6.896;2023-05-02T05:44:42;101623.03;;;10.60;100.00
72959;BME280;60008;50.826;6.896;2023-05-02T05:47:27;101629.22;;;10.70;100.00
72959;BME280;60008;50.826;6.896;2023-05-02T05:50:13;101625.28;;;10.55;100.00
72959;BME280;60008;50.826;6.896;2023-05-02T05:52:58;101635.75;;;10.66;100.00
72959;BME280;60008;50.826;6.896;2023-05-02T05:55:43;101635.75;;;10.66;100.00
72959;BME280;60008;50.826;6.896;2023-05-02T05:58:28;101638.00;;;10.80;100.00
72959;BME280;60008;50.826;6.896;2023-05-02T06:01:13;101638.81;;;11.00;100.00
72959;BME280;60008;50.826;6.896;2023-05-02T06:03:58;101640.22;;;10.94;100.00
72959;BME280;60008;50.826;6.896;2023-05-02T06:06:43;101641.88;;;10.95;100.00
72959;BME280;60008;50.826;6.896;2023-05-02T06:09:29;101643.00;;;10.93;100.00
72959;BME280;60008;50.826;6.896;2023-05-02T06:12:14;101646.78;;;11.00;100.00
72959;BME280;60008;50.826;6.896;2023-05-02T06:15:00;101649.56;;;10.89;100.00
72959;BME280;60008;50.826;6.896;2023-05-02T06:17:45;101650.28;;;10.91;100.00
72959;BME280;60008;50.826;6.896;2023-05-02T06:20:30;101650.56;;;10.97;100.00
72959;BME280;60008;50.826;6.896;2023-05-02T06:23:15;101660.44;;;11.14;100.00
72959;BME280;60008;50.826;6.896;2023-05-02T06:26:02;101658.94;;;11.02;100.00
72959;BME280;60008;50.826;6.896;2023-05-02T06:28:47;101672.91;;;10.95;100.00
72959;BME280;60008;50.826;6.896;2023-05-02T06:31:32;101683.38;;;10.87;100.00
72959;BME280;60008;50.826;6.896;2023-05-02T06:34:17;101693.09;;;10.76;100.00
72959;BME280;60008;50.826;6.896;2023-05-02T06:37:02;101695.50;;;10.99;100.00
72959;BME280;60008;50.826;6.896;2023-05-02T06:39:47;101698.72;;;11.02;100.00
72959;BME280;60008;50.826;6.896;2023-05-02T06:42:32;101702.22;;;11.03;100.00
72959;BME280;60008;50.826;6.896;2023-05-02T06:45:17;101697.56;;;11.14;100.00
72959;BME280;60008;50.826;6.896;2023-05-02T06:48:02;101716.59;;;11.19;100.00
72959;BME280;60008;50.826;6.896;2023-05-02T06:50:48;101713.34;;;11.06;100.00
72959;BME280;60008;50.826;6.896;2023-05-02T06:53:32;101717.56;;;10.90;100.00
72959;BME280;60008;50.826;6.896;2023-05-02T06:56:18;101722.88;;;10.90;100.00
72959;BME280;60008;50.826;6.896;2023-05-02T06:59:03;101729.72;;;11.02;100.00
72959;BME280;60008;50.826;6.896;2023-05-02T07:01:49;101732.25;;;11.03;100.00
72959;BME280;60008;50.826;6.896;2023-05-02T07:04:34;101728.59;;;10.95;100.00
72959;BME280;60008;50.826;6.896;2023-05-02T07:07:19;101737.81;;;11.00;100.00
72959;BME280;60008;50.826;6.896;2023-05-02T07:10:06;101733.06;;;11.13;100.00
72959;BME280;60008;50.826;6.896;2023-05-02T07:12:51;101745.78;;;11.19;100.00
72959;BME280;60008;50.826;6.896;2023-05-02T07:15:36;101743.78;;;10.93;100.00
72959;BME280;60008;50.826;6.896;2023-05-02T07:18:21;101751.22;;;11.18;100.00
72959;BME280;60008;50.826;6.896;2023-05-02T07:21:07;101752.19;;;11.26;100.00
72959;BME280;60008;50.826;6.896;2023-05-02T07:23:52;101753.31;;;11.24;100.00
72959;BME280;60008;50.826;6.896;2023-05-02T07:26:39;101762.13;;;11.24;100.00
72959;BME280;60008;50.826;6.896;2023-05-02T07:29:24;101751.38;;;11.16;100.00
72959;BME280;60008;50.826;6.896;2023-05-02T07:32:09;101762.94;;;11.15;100.00
72959;BME280;60008;50.826;6.896;2023-05-02T07:34:55;101762.50;;;11.20;100.00
72959;BME280;60008;50.826;6.896;2023-05-02T07:37:40;101766.44;;;11.16;100.00
72959;BME280;60008;50.826;6.896;2023-05-02T07:40:26;101760.97;;;11.17;100.00
72959;BME280;60008;50.826;6.896;2023-05-02T07:43:12;101775.25;;;11.16;100.00
72959;BME280;60008;50.826;6.896;2023-05-02T07:45:57;101783.41;;;10.75;100.00
72959;BME280;60008;50.826;6.896;2023-05-02T07:48:47;101788.72;;;10.75;100.00
72959;BME280;60008;50.826;6.896;2023-05-02T07:51:32;101786.06;;;10.75;100.00
72959;BME280;60008;50.826;6.896;2023-05-02T07:54:19;101779.91;;;10.74;100.00
72959;BME280;60008;50.826;6.896;2023-05-02T07:57:04;101763.44;;;10.61;100.00
72959;BME280;60008;50.826;6.896;2023-05-02T07:59:51;101760.34;;;10.66;100.00
72959;BME280;60008;50.826;6.896;2023-05-02T08:02:37;101769.72;;;10.80;100.00
72959;BME280;60008;50.826;6.896;2023-05-02T08:05:21;101779.00;;;11.04;100.00
72959;BME280;60008;50.826;6.896;2023-05-02T08:08:07;101765.84;;;10.84;100.00
72959;BME280;60008;50.826;6.896;2023-05-02T08:10:52;101775.78;;;11.10;100.00
72959;BME280;60008;50.826;6.896;2023-05-02T08:13:37;101773.56;;;11.25;100.00
72959;BME280;60008;50.826;6.896;2023-05-02T08:16:22;101771.75;;;11.35;100.00
72959;BME280;60008;50.826;6.896;2023-05-02T08:19:08;101778.31;;;11.31;100.00
72959;BME280;60008;50.826;6.896;2023-05-02T08:21:53;101776.34;;;11.04;100.00
72959;BME280;60008;50.826;6.896;2023-05-02T08:24:39;101785.25;;;10.84;100.00
72959;BME280;60008;50.826;6.896;2023-05-02T08:27:24;101791.44;;;11.42;100.00
72959;BME280;60008;50.826;6.896;2023-05-02T08:30:09;101792.16;;;11.73;100.00
72959;BME280;60008;50.826;6.896;2023-05-02T08:32:54;101790.88;;;11.86;100.00
72959;BME280;60008;50.826;6.896;2023-05-02T08:35:39;101792.34;;;11.99;100.00
72959;BME280;60008;50.826;6.896;2023-05-02T08:38:25;101783.81;;;12.05;100.00
72959;BME280;60008;50.826;6.896;2023-05-02T08:41:15;101783.88;;;12.59;100.00
72959;BME280;60008;50.826;6.896;2023-05-02T08:44:02;101781.03;;;12.43;100.00
72959;BME280;60008;50.826;6.896;2023-05-02T08:46:48;101784.81;;;12.40;100.00
72959;BME280;60008;50.826;6.896;2023-05-02T08:49:34;101779.47;;;12.13;100.00
72959;BME280;60008;50.826;6.896;2023-05-02T08:52:20;101787.63;;;12.39;100.00
72959;BME280;60008;50.826;6.896;2023-05-02T08:55:06;101786.81;;;11.92;100.00
72959;BME280;60008;50.826;6.896;2023-05-02T08:57:51;101790.66;;;12.17;100.00
72959;BME280;60008;50.826;6.896;2023-05-02T09:00:39;101781.47;;;12.38;100.00
72959;BME280;60008;50.826;6.896;2023-05-02T09:06:16;101788.63;;;12.83;100.00
72959;BME280;60008;50.826;6.896;2023-05-02T09:09:02;101790.56;;;12.90;100.00
72959;BME280;60008;50.826;6.896;2023-05-02T09:11:48;101796.13;;;12.70;100.00
72959;BME280;60008;50.826;6.896;2023-05-02T09:14:34;101800.19;;;12.74;100.00
72959;BME280;60008;50.826;6.896;2023-05-02T09:17:18;101801.53;;;12.78;100.00
72959;BME280;60008;50.826;6.896;2023-05-02T09:20:05;101810.81;;;12.46;100.00
72959;BME280;60008;50.826;6.896;2023-05-02T09:22:51;101818.81;;;12.37;100.00
72959;BME280;60008;50.826;6.896;2023-05-02T09:25:36;101811.19;;;12.24;100.00
72959;BME280;60008;50.826;6.896;2023-05-02T09:28:37;101822.59;;;12.34;100.00
72959;BME280;60008;50.826;6.896;2023-05-02T09:31:24;101824.47;;;12.24;100.00
72959;BME280;60008;50.826;6.896;2023-05-02T09:34:28;101825.06;;;12.09;100.00
72959;BME280;60008;50.826;6.896;2023-05-02T09:37:33;101822.38;;;12.18;100.00
72959;BME280;60008;50.826;6.896;2023-05-02T09:40:18;101813.13;;;12.59;100.00
72959;BME280;60008;50.826;6.896;2023-05-02T09:43:13;101826.97;;;12.63;100.00
72959;BME280;60008;50.826;6.896;2023-05-02T09:46:01;101846.22;;;12.47;100.00
72959;BME280;60008;50.826;6.896;2023-05-02T09:48:56;101844.25;;;12.03;100.00
72959;BME280;60008;50.826;6.896;2023-05-02T09:51:41;101853.91;;;11.46;100.00
72959;BME280;60008;50.826;6.896;2023-05-02T09:54:34;101863.97;;;11.62;100.00
72959;BME280;60008;50.826;6.896;2023-05-02T09:57:20;101862.56;;;11.77;100.00
72959;BME280;60008;50.826;6.896;2023-05-02T10:00:05;101862.69;;;12.04;100.00
72959;BME280;60008;50.826;6.896;2023-05-02T10:02:53;101862.00;;;12.12;100.00
72959;BME280;60008;50.826;6.896;2023-05-02T10:05:38;101872.38;;;12.42;100.00
72959;BME280;60008;50.826;6.896;2023-05-02T10:08:25;101866.44;;;12.21;100.00
72959;BME280;60008;50.826;6.896;2023-05-02T10:11:11;101873.72;;;12.28;100.00
72959;BME280;60008;50.826;6.896;2023-05-02T10:13:57;101864.78;;;12.66;100.00
72959;BME280;60008;50.826;6.896;2023-05-02T10:17:11;101867.22;;;12.40;100.00
72959;BME280;60008;50.826;6.896;2023-05-02T10:20:04;101871.63;;;12.22;100.00
72959;BME280;60008;50.826;6.896;2023-05-02T10:22:50;101872.78;;;12.84;100.00
72959;BME280;60008;50.826;6.896;2023-05-02T10:25:37;101869.66;;;12.61;100.00
72959;BME280;60008;50.826;6.896;2023-05-02T10:28:22;101871.72;;;13.04;100.00
72959;BME280;60008;50.826;6.896;2023-05-02T10:31:12;101870.47;;;12.71;100.00
72959;BME280;60008;50.826;6.896;2023-05-02T10:33:58;101862.03;;;13.13;100.00
72959;BME280;60008;50.826;6.896;2023-05-02T10:36:44;101873.56;;;12.94;100.00
72959;BME280;60008;50.826;6.896;2023-05-02T10:39:30;101878.09;;;12.93;100.00
72959;BME280;60008;50.826;6.896;2023-05-02T10:42:16;101878.19;;;12.74;100.00
72959;BME280;60008;50.826;6.896;2023-05-02T10:45:03;101883.44;;;12.47;100.00
72959;BME280;60008;50.826;6.896;2023-05-02T10:47:49;101885.22;;;12.93;100.00
72959;BME280;60008;50.826;6.896;2023-05-02T10:50:45;101885.72;;;12.32;100.00
72959;BME280;60008;50.826;6.896;2023-05-02T10:53:33;101886.06;;;12.66;100.00
72959;BME280;60008;50.826;6.896;2023-05-02T10:56:20;101877.09;;;12.94;100.00
72959;BME280;60008;50.826;6.896;2023-05-02T11:05:11;101882.31;;;12.49;100.00
72959;BME280;60008;50.826;6.896;2023-05-02T11:11:39;101881.91;;;12.81;100.00
72959;BME280;60008;50.826;6.896;2023-05-02T11:17:22;101889.34;;;12.31;100.00
72959;BME280;60008;50.826;6.896;2023-05-02T11:22:53;101887.72;;;12.02;100.00
72959;BME280;60008;50.826;6.896;2023-05-02T11:25:41;101891.06;;;12.23;100.00
72959;BME280;60008;50.826;6.896;2023-05-02T11:34:12;101887.84;;;12.10;100.00
72959;BME280;60008;50.826;6.896;2023-05-02T11:36:57;101890.22;;;12.13;100.00
72959;BME280;60008;50.826;6.896;2023-05-02T11:39:42;101891.00;;;13.16;100.00
72959;BME280;60008;50.826;6.896;2023-05-02T11:42:30;101896.94;;;13.00;100.00
72959;BME280;60008;50.826;6.896;2023-05-02T11:45:16;101899.03;;;13.33;100.00
72959;BME280;60008;50.826;6.896;2023-05-02T11:48:03;101894.22;;;13.19;100.00
72959;BME280;60008;50.826;6.896;2023-05-02T11:51:00;101908.97;;;12.77;100.00
72959;BME280;60008;50.826;6.896;2023-05-02T11:53:47;101908.88;;;12.96;100.00
72959;BME280;60008;50.826;6.896;2023-05-02T11:56:33;101916.56;;;12.72;100.00
72959;BME280;60008;50.826;6.896;2023-05-02T11:59:18;101914.19;;;12.59;100.00
72959;BME280;60008;50.826;6.896;2023-05-02T12:02:02;101909.75;;;12.50;100.00
72959;BME280;60008;50.826;6.896;2023-05-02T12:04:47;101910.25;;;13.00;100.00
72959;BME280;60008;50.826;6.896;2023-05-02T12:10:21;101916.72;;;13.07;100.00
72959;BME280;60008;50.826;6.896;2023-05-02T12:13:06;101925.56;;;12.51;100.00
72959;BME280;60008;50.826;6.896;2023-05-02T12:15:54;101927.66;;;12.48;100.00
72959;BME280;60008;50.826;6.896;2023-05-02T12:18:40;101929.63;;;12.92;100.00
72959;BME280;60008;50.826;6.896;2023-05-02T12:21:27;101930.97;;;12.96;100.00
72959;BME280;60008;50.826;6.896;2023-05-02T12:24:14;101930.25;;;12.77;100.00
72959;BME280;60008;50.826;6.896;2023-05-02T12:27:08;101925.66;;;12.96;100.00
72959;BME280;60008;50.826;6.896;2023-05-02T12:29:53;101922.63;;;13.46;100.00
72959;BME280;60008;50.826;6.896;2023-05-02T12:32:39;101924.44;;;13.45;100.00
72959;BME280;60008;50.826;6.896;2023-05-02T12:35:29;101917.28;;;13.28;100.00
72959;BME280;60008;50.826;6.896;2023-05-02T12:38:16;101928.22;;;13.25;100.00
72959;BME280;60008;50.826;6.896;2023-05-02T12:41:02;101930.09;;;12.78;100.00
72959;BME280;60008;50.826;6.896;2023-05-02T12:43:48;101921.19;;;13.51;100.00
72959;BME280;60008;50.826;6.896;2023-05-02T12:46:34;101920.63;;;13.75;100.00
72959;BME280;60008;50.826;6.896;2023-05-02T12:49:20;101922.34;;;14.02;100.00
72959;BME280;60008;50.826;6.896;2023-05-02T12:52:04;101932.91;;;12.77;100.00
72959;BME280;60008;50.826;6.896;2023-05-02T12:54:49;101941.09;;;12.93;100.00
72959;BME280;60008;50.826;6.896;2023-05-02T12:57:34;101933.25;;;13.28;100.00
72959;BME280;60008;50.826;6.896;2023-05-02T13:00:19;101935.56;;;13.41;100.00
72959;BME280;60008;50.826;6.896;2023-05-02T13:03:05;101941.84;;;13.22;100.00
72959;BME280;60008;50.826;6.896;2023-05-02T13:05:53;101947.78;;;12.97;100.00
72959;BME280;60008;50.826;6.896;2023-05-02T13:08:38;101943.53;;;13.23;100.00
72959;BME280;60008;50.826;6.896;2023-05-02T13:11:23;101937.47;;;13.21;100.00
72959;BME280;60008;50.826;6.896;2023-05-02T13:14:08;101941.50;;;12.98;100.00
72959;BME280;60008;50.826;6.896;2023-05-02T13:16:55;101943.47;;;13.33;100.00
72959;BME280;60008;50.826;6.896;2023-05-02T13:19:40;101943.81;;;13.20;100.00
72959;BME280;60008;50.826;6.896;2023-05-02T13:22:37;101940.56;;;13.26;100.00
72959;BME280;60008;50.826;6.896;2023-05-02T13:25:23;101943.19;;;13.53;100.00
72959;BME280;60008;50.826;6.896;2023-05-02T13:28:08;101939.44;;;13.46;100.00
72959;BME280;60008;50.826;6.896;2023-05-02T13:30:53;101934.97;;;13.64;100.00
72959;BME280;60008;50.826;6.896;2023-05-02T13:33:38;101944.72;;;13.73;100.00
72959;BME280;60008;50.826;6.896;2023-05-02T13:36:23;101948.22;;;13.92;100.00
72959;BME280;60008;50.826;6.896;2023-05-02T13:39:08;101941.63;;;13.96;100.00
72959;BME280;60008;50.826;6.896;2023-05-02T13:41:54;101943.59;;;14.11;100.00
72959;BME280;60008;50.826;6.896;2023-05-02T13:44:39;101937.13;;;13.79;100.00
72959;BME280;60008;50.826;6.896;2023-05-02T13:47:24;101946.31;;;14.37;100.00
72959;BME280;60008;50.826;6.896;2023-05-02T13:50:09;101950.22;;;13.90;100.00
72959;BME280;60008;50.826;6.896;2023-05-02T13:52:55;101944.03;;;13.89;100.00
72959;BME280;60008;50.826;6.896;2023-05-02T13:55:41;101949.84;;;13.85;100.00
72959;BME280;60008;50.826;6.896;2023-05-02T13:58:26;101948.44;;;13.81;100.00
72959;BME280;60008;50.826;6.896;2023-05-02T14:01:11;101942.16;;;13.82;100.00
72959;BME280;60008;50.826;6.896;2023-05-02T14:03:56;101946.59;;;13.46;100.00
72959;BME280;60008;50.826;6.896;2023-05-02T14:06:41;101949.91;;;13.30;99.76
72959;BME280;60008;50.826;6.896;2023-05-02T14:09:26;101952.03;;;13.71;97.03
72959;BME280;60008;50.826;6.896;2023-05-02T14:12:11;101948.16;;;14.01;93.11
72959;BME280;60008;50.826;6.896;2023-05-02T14:14:56;101949.03;;;13.39;92.65
72959;BME280;60008;50.826;6.896;2023-05-02T14:17:41;101954.97;;;13.24;96.93
72959;BME280;60008;50.826;6.896;2023-05-02T14:20:26;101954.28;;;13.49;94.24
72959;BME280;60008;50.826;6.896;2023-05-02T14:23:11;101947.84;;;13.24;97.55
72959;BME280;60008;50.826;6.896;2023-05-02T14:25:56;101949.41;;;13.44;96.20
72959;BME280;60008;50.826;6.896;2023-05-02T14:28:42;101947.53;;;13.54;90.19
72959;BME280;60008;50.826;6.896;2023-05-02T14:31:27;101957.50;;;12.88;90.71
72959;BME280;60008;50.826;6.896;2023-05-02T14:34:12;101959.78;;;13.65;93.55
72959;BME280;60008;50.826;6.896;2023-05-02T14:36:57;101959.13;;;13.36;96.17
72959;BME280;60008;50.826;6.896;2023-05-02T14:39:42;101958.19;;;13.54;94.95
72959;BME280;60008;50.826;6.896;2023-05-02T14:42:31;101956.56;;;13.44;92.23
72959;BME280;60008;50.826;6.896;2023-05-02T14:45:16;101956.31;;;13.37;96.40
72959;BME280;60008;50.826;6.896;2023-05-02T14:48:01;101953.03;;;13.26;93.95
72959;BME280;60008;50.826;6.896;2023-05-02T14:50:46;101948.66;;;13.52;94.33
72959;BME280;60008;50.826;6.896;2023-05-02T14:53:31;101959.81;;;13.10;94.78
72959;BME280;60008;50.826;6.896;2023-05-02T14:56:16;101948.53;;;12.89;96.63
72959;BME280;60008;50.826;6.896;2023-05-02T14:59:02;101949.56;;;12.79;98.25